sensor_id;sensor_type;location;lat;lon;timestamp;P1;durP1;ratioP1;P2;durP2;ratioP2
42432;SDS011;28071;48.232;20.668;2023-08-17T00:00:25;1.27;;;1.10;;
42432;SDS011;28071;48.232;20.668;2023-08-17T00:05:25;3.72;;;1.35;;
42432;SDS011;28071;48.232;20.668;2023-08-17T00:10:27;1.10;;;1.00;;
42432;SDS011;28071;48.232;20.668;2023-08-17T00:15:28;1.38;;;1.13;;
42432;SDS011;28071;48.232;20.668;2023-08-17T00:20:28;1.42;;;1.20;;
42432;SDS011;28071;48.232;20.668;2023-08-17T00:25:29;1.35;;;1.25;;
42432;SDS011;28071;48.232;20.668;2023-08-17T00:30:29;1.25;;;0.90;;
42432;SDS011;28071;48.232;20.668;2023-08-17T00:35:30;1.10;;;1.00;;
42432;SDS011;28071;48.232;20.668;2023-08-17T00:40:30;1.02;;;0.90;;
42432;SDS011;28071;48.232;20.668;2023-08-17T00:45:31;1.10;;;1.00;;
42432;SDS011;28071;48.232;20.668;2023-08-17T00:50:32;1.67;;;1.25;;
42432;SDS011;28071;48.232;20.668;2023-08-17T00:55:32;1.45;;;1.02;;
42432;SDS011;28071;48.232;20.668;2023-08-17T01:00:33;1.70;;;1.02;;
42432;SDS011;28071;48.232;20.668;2023-08-17T01:05:34;1.70;;;1.60;;
42432;SDS011;28071;48.232;20.668;2023-08-17T01:10:41;1.63;;;1.52;;
42432;SDS011;28071;48.232;20.668;2023-08-17T01:15:46;1.25;;;1.08;;
42432;SDS011;28071;48.232;20.668;2023-08-17T01:20:52;4.28;;;1.40;;
42432;SDS011;28071;48.232;20.668;2023-08-17T01:25:53;0.80;;;0.80;;
42432;SDS011;28071;48.232;20.668;2023-08-17T01:30:57;1.33;;;1.23;;
42432;SDS011;28071;48.232;20.668;2023-08-17T01:36:05;1.63;;;1.27;;
42432;SDS011;28071;48.232;20.668;2023-08-17T01:41:13;2.38;;;1.17;;
42432;SDS011;28071;48.232;20.668;2023-08-17T01:46:16;0.93;;;0.90;;
42432;SDS011;28071;48.232;20.668;2023-08-17T01:51:18;3.60;;;1.60;;
42432;SDS011;28071;48.232;20.668;2023-08-17T01:56:22;1.85;;;1.13;;
42432;SDS011;28071;48.232;20.668;2023-08-17T02:01:22;2.38;;;1.20;;
42432;SDS011;28071;48.232;20.668;2023-08-17T02:06:22;1.20;;;0.82;;
42432;SDS011;28071;48.232;20.668;2023-08-17T02:11:23;1.83;;;1.33;;
42432;SDS011;28071;48.232;20.668;2023-08-17T02:16:23;1.42;;;1.33;;
42432;SDS011;28071;48.232;20.668;2023-08-17T02:21:24;1.98;;;1.60;;
42432;SDS011;28071;48.232;20.668;2023-08-17T02:26:24;1.73;;;1.48;;
42432;SDS011;28071;48.232;20.668;2023-08-17T02:31:24;1.45;;;1.00;;
42432;SDS011;28071;48.232;20.668;2023-08-17T02:36:25;1.48;;;1.20;;
42432;SDS011;28071;48.232;20.668;2023-08-17T02:41:25;2.03;;;1.30;;
42432;SDS011;28071;48.232;20.668;2023-08-17T02:46:26;1.23;;;1.13;;
42432;SDS011;28071;48.232;20.668;2023-08-17T02:51:26;1.45;;;1.35;;
42432;SDS011;28071;48.232;20.668;2023-08-17T02:56:26;2.08;;;1.15;;
42432;SDS011;28071;48.232;20.668;2023-08-17T03:01:27;1.83;;;1.45;;
42432;SDS011;28071;48.232;20.668;2023-08-17T03:06:29;1.38;;;1.27;;
42432;SDS011;28071;48.232;20.668;2023-08-17T03:11:29;1.92;;;1.27;;
42432;SDS011;28071;48.232;20.668;2023-08-17T03:16:29;1.45;;;0.90;;
42432;SDS011;28071;48.232;20.668;2023-08-17T03:21:30;2.33;;;1.00;;
42432;SDS011;28071;48.232;20.668;2023-08-17T03:26:30;1.65;;;1.05;;
42432;SDS011;28071;48.232;20.668;2023-08-17T03:31:31;3.50;;;1.20;;
42432;SDS011;28071;48.232;20.668;2023-08-17T03:36:31;1.80;;;1.05;;
42432;SDS011;28071;48.232;20.668;2023-08-17T03:41:31;1.55;;;1.45;;
42432;SDS011;28071;48.232;20.668;2023-08-17T03:46:32;1.98;;;1.58;;
42432;SDS011;28071;48.232;20.668;2023-08-17T03:51:32;1.30;;;0.90;;
42432;SDS011;28071;48.232;20.668;2023-08-17T03:56:33;1.10;;;1.00;;
42432;SDS011;28071;48.232;20.668;2023-08-17T04:01:33;1.55;;;1.25;;
42432;SDS011;28071;48.232;20.668;2023-08-17T04:06:34;1.80;;;1.45;;
42432;SDS011;28071;48.232;20.668;2023-08-17T04:11:35;2.60;;;1.50;;
42432;SDS011;28071;48.232;20.668;2023-08-17T04:16:39;1.77;;;1.48;;
42432;SDS011;28071;48.232;20.668;2023-08-17T04:21:40;2.00;;;1.38;;
42432;SDS011;28071;48.232;20.668;2023-08-17T04:26:40;3.67;;;2.22;;
42432;SDS011;28071;48.232;20.668;2023-08-17T04:31:40;3.42;;;1.45;;
42432;SDS011;28071;48.232;20.668;2023-08-17T04:36:41;2.03;;;1.27;;
42432;SDS011;28071;48.232;20.668;2023-08-17T04:41:41;2.28;;;1.65;;
42432;SDS011;28071;48.232;20.668;2023-08-17T04:46:42;2.45;;;1.73;;
42432;SDS011;28071;48.232;20.668;2023-08-17T04:51:42;2.35;;;1.70;;
42432;SDS011;28071;48.232;20.668;2023-08-17T04:56:43;2.53;;;1.52;;
42432;SDS011;28071;48.232;20.668;2023-08-17T05:01:43;4.47;;;1.90;;
42432;SDS011;28071;48.232;20.668;2023-08-17T05:06:44;2.17;;;1.73;;
42432;SDS011;28071;48.232;20.668;2023-08-17T05:11:44;2.33;;;1.88;;
42432;SDS011;28071;48.232;20.668;2023-08-17T05:16:45;2.05;;;1.35;;
42432;SDS011;28071;48.232;20.668;2023-08-17T05:21:45;1.65;;;1.35;;
42432;SDS011;28071;48.232;20.668;2023-08-17T05:26:46;2.95;;;1.75;;
42432;SDS011;28071;48.232;20.668;2023-08-17T05:31:46;2.22;;;1.52;;
42432;SDS011;28071;48.232;20.668;2023-08-17T05:36:47;3.63;;;2.45;;
42432;SDS011;28071;48.232;20.668;2023-08-17T05:41:47;2.97;;;2.08;;
42432;SDS011;28071;48.232;20.668;2023-08-17T05:46:47;3.55;;;2.13;;
42432;SDS011;28071;48.232;20.668;2023-08-17T05:51:48;2.78;;;2.13;;
42432;SDS011;28071;48.232;20.668;2023-08-17T05:56:49;4.00;;;1.73;;
42432;SDS011;28071;48.232;20.668;2023-08-17T06:01:49;1.90;;;1.58;;
42432;SDS011;28071;48.232;20.668;2023-08-17T06:06:50;1.42;;;1.30;;
42432;SDS011;28071;48.232;20.668;2023-08-17T06:11:50;3.72;;;1.75;;
42432;SDS011;28071;48.232;20.668;2023-08-17T06:16:52;2.45;;;1.85;;
42432;SDS011;28071;48.232;20.668;2023-08-17T06:21:52;1.80;;;1.40;;
42432;SDS011;28071;48.232;20.668;2023-08-17T06:26:52;2.00;;;1.40;;
42432;SDS011;28071;48.232;20.668;2023-08-17T06:31:53;2.80;;;1.17;;
42432;SDS011;28071;48.232;20.668;2023-08-17T06:36:58;2.55;;;1.95;;
42432;SDS011;28071;48.232;20.668;2023-08-17T06:42:00;9.70;;;4.13;;
42432;SDS011;28071;48.232;20.668;2023-08-17T06:47:00;6.68;;;3.67;;
42432;SDS011;28071;48.232;20.668;2023-08-17T06:52:01;5.45;;;3.20;;
42432;SDS011;28071;48.232;20.668;2023-08-17T06:57:01;6.45;;;2.78;;
42432;SDS011;28071;48.232;20.668;2023-08-17T07:02:02;5.43;;;1.90;;
42432;SDS011;28071;48.232;20.668;2023-08-17T07:07:02;1.70;;;1.35;;
42432;SDS011;28071;48.232;20.668;2023-08-17T07:12:03;2.33;;;1.63;;
42432;SDS011;28071;48.232;20.668;2023-08-17T07:17:03;2.92;;;1.60;;
42432;SDS011;28071;48.232;20.668;2023-08-17T07:22:04;2.42;;;1.27;;
42432;SDS011;28071;48.232;20.668;2023-08-17T07:27:04;1.75;;;1.27;;
42432;SDS011;28071;48.232;20.668;2023-08-17T07:32:05;5.10;;;1.80;;
42432;SDS011;28071;48.232;20.668;2023-08-17T07:37:05;2.75;;;1.77;;
42432;SDS011;28071;48.232;20.668;2023-08-17T07:42:06;2.75;;;1.55;;
42432;SDS011;28071;48.232;20.668;2023-08-17T07:47:06;2.47;;;1.40;;
42432;SDS011;28071;48.232;20.668;2023-08-17T07:52:07;3.95;;;1.98;;
42432;SDS011;28071;48.232;20.668;2023-08-17T07:57:07;5.13;;;1.75;;
42432;SDS011;28071;48.232;20.668;2023-08-17T08:02:07;2.17;;;1.58;;
42432;SDS011;28071;48.232;20.668;2023-08-17T08:07:08;4.32;;;2.03;;
42432;SDS011;28071;48.232;20.668;2023-08-17T08:12:10;1.88;;;1.70;;
42432;SDS011;28071;48.232;20.668;2023-08-17T08:17:10;3.47;;;1.90;;
42432;SDS011;28071;48.232;20.668;2023-08-17T08:22:11;2.15;;;1.17;;
42432;SDS011;28071;48.232;20.668;2023-08-17T08:27:11;2.40;;;1.05;;
42432;SDS011;28071;48.232;20.668;2023-08-17T08:32:12;2.05;;;1.67;;
42432;SDS011;28071;48.232;20.668;2023-08-17T08:37:12;1.85;;;1.48;;
42432;SDS011;28071;48.232;20.668;2023-08-17T08:42:13;1.58;;;1.48;;
42432;SDS011;28071;48.232;20.668;2023-08-17T08:47:13;3.53;;;2.03;;
42432;SDS011;28071;48.232;20.668;2023-08-17T08:52:14;1.95;;;1.20;;
42432;SDS011;28071;48.232;20.668;2023-08-17T08:57:19;2.65;;;1.10;;
42432;SDS011;28071;48.232;20.668;2023-08-17T09:02:21;2.72;;;1.55;;
42432;SDS011;28071;48.232;20.668;2023-08-17T09:07:22;3.42;;;1.85;;
42432;SDS011;28071;48.232;20.668;2023-08-17T09:12:24;1.77;;;1.42;;
42432;SDS011;28071;48.232;20.668;2023-08-17T09:17:24;2.67;;;2.08;;
42432;SDS011;28071;48.232;20.668;2023-08-17T09:22:39;3.40;;;2.45;;
42432;SDS011;28071;48.232;20.668;2023-08-17T09:27:41;2.45;;;1.70;;
42432;SDS011;28071;48.232;20.668;2023-08-17T09:32:41;2.17;;;1.23;;
42432;SDS011;28071;48.232;20.668;2023-08-17T09:37:42;3.10;;;1.45;;
42432;SDS011;28071;48.232;20.668;2023-08-17T09:42:42;2.63;;;1.85;;
42432;SDS011;28071;48.232;20.668;2023-08-17T09:47:44;3.20;;;1.90;;
42432;SDS011;28071;48.232;20.668;2023-08-17T09:52:46;2.13;;;1.55;;
42432;SDS011;28071;48.232;20.668;2023-08-17T09:57:47;1.40;;;1.13;;
42432;SDS011;28071;48.232;20.668;2023-08-17T10:02:50;3.47;;;1.40;;
42432;SDS011;28071;48.232;20.668;2023-08-17T10:07:54;2.05;;;1.17;;
42432;SDS011;28071;48.232;20.668;2023-08-17T10:13:21;2.38;;;1.42;;
42432;SDS011;28071;48.232;20.668;2023-08-17T10:23:59;1.05;;;0.80;;
42432;SDS011;28071;48.232;20.668;2023-08-17T10:29:00;2.45;;;1.10;;
42432;SDS011;28071;48.232;20.668;2023-08-17T10:34:02;4.03;;;1.25;;
42432;SDS011;28071;48.232;20.668;2023-08-17T10:49:48;1.90;;;0.90;;
42432;SDS011;28071;48.232;20.668;2023-08-17T10:54:55;1.70;;;0.85;;
42432;SDS011;28071;48.232;20.668;2023-08-17T11:05:21;3.08;;;1.23;;
42432;SDS011;28071;48.232;20.668;2023-08-17T11:11:01;1.92;;;1.20;;
42432;SDS011;28071;48.232;20.668;2023-08-17T11:16:05;1.52;;;1.02;;
42432;SDS011;28071;48.232;20.668;2023-08-17T11:21:06;1.38;;;1.00;;
42432;SDS011;28071;48.232;20.668;2023-08-17T11:26:08;2.92;;;0.90;;
42432;SDS011;28071;48.232;20.668;2023-08-17T11:31:10;1.65;;;0.95;;
42432;SDS011;28071;48.232;20.668;2023-08-17T11:36:11;4.38;;;1.02;;
42432;SDS011;28071;48.232;20.668;2023-08-17T11:41:11;3.33;;;1.38;;
42432;SDS011;28071;48.232;20.668;2023-08-17T11:46:13;1.10;;;1.00;;
42432;SDS011;28071;48.232;20.668;2023-08-17T11:51:13;1.00;;;0.95;;
42432;SDS011;28071;48.232;20.668;2023-08-17T11:56:14;0.82;;;0.70;;
42432;SDS011;28071;48.232;20.668;2023-08-17T12:01:15;1.08;;;0.75;;
42432;SDS011;28071;48.232;20.668;2023-08-17T12:06:16;0.93;;;0.82;;
42432;SDS011;28071;48.232;20.668;2023-08-17T12:11:17;1.38;;;1.27;;
42432;SDS011;28071;48.232;20.668;2023-08-17T12:16:18;2.35;;;0.95;;
42432;SDS011;28071;48.232;20.668;2023-08-17T12:21:20;1.38;;;0.88;;
42432;SDS011;28071;48.232;20.668;2023-08-17T12:26:21;1.33;;;0.90;;
42432;SDS011;28071;48.232;20.668;2023-08-17T12:31:22;3.25;;;1.17;;
42432;SDS011;28071;48.232;20.668;2023-08-17T12:36:25;1.20;;;0.90;;
42432;SDS011;28071;48.232;20.668;2023-08-17T12:41:25;1.38;;;0.93;;
42432;SDS011;28071;48.232;20.668;2023-08-17T12:46:26;1.55;;;0.70;;
42432;SDS011;28071;48.232;20.668;2023-08-17T12:51:26;1.10;;;0.70;;
42432;SDS011;28071;48.232;20.668;2023-08-17T12:56:27;0.80;;;0.80;;
42432;SDS011;28071;48.232;20.668;2023-08-17T13:01:27;1.20;;;0.90;;
42432;SDS011;28071;48.232;20.668;2023-08-17T13:06:28;1.13;;;0.93;;
42432;SDS011;28071;48.232;20.668;2023-08-17T13:11:28;1.23;;;1.00;;
42432;SDS011;28071;48.232;20.668;2023-08-17T13:16:29;0.80;;;0.70;;
42432;SDS011;28071;48.232;20.668;2023-08-17T13:21:29;2.40;;;0.70;;
42432;SDS011;28071;48.232;20.668;2023-08-17T13:26:29;1.17;;;0.82;;
42432;SDS011;28071;48.232;20.668;2023-08-17T13:31:31;0.77;;;0.75;;
42432;SDS011;28071;48.232;20.668;2023-08-17T13:36:31;1.60;;;0.80;;
42432;SDS011;28071;48.232;20.668;2023-08-17T13:41:32;1.38;;;1.13;;
42432;SDS011;28071;48.232;20.668;2023-08-17T13:46:32;1.25;;;0.70;;
42432;SDS011;28071;48.232;20.668;2023-08-17T13:51:32;1.17;;;0.68;;
42432;SDS011;28071;48.232;20.668;2023-08-17T13:56:33;2.05;;;0.75;;
42432;SDS011;28071;48.232;20.668;2023-08-17T14:01:33;3.15;;;1.20;;
42432;SDS011;28071;48.232;20.668;2023-08-17T14:06:34;1.13;;;1.00;;
42432;SDS011;28071;48.232;20.668;2023-08-17T14:11:34;0.83;;;0.83;;
42432;SDS011;28071;48.232;20.668;2023-08-17T14:16:35;1.02;;;0.70;;
42432;SDS011;28071;48.232;20.668;2023-08-17T14:21:36;1.20;;;0.63;;
42432;SDS011;28071;48.232;20.668;2023-08-17T14:26:36;1.45;;;0.73;;
42432;SDS011;28071;48.232;20.668;2023-08-17T14:31:37;1.92;;;1.25;;
42432;SDS011;28071;48.232;20.668;2023-08-17T14:36:37;1.38;;;0.80;;
42432;SDS011;28071;48.232;20.668;2023-08-17T14:41:38;0.50;;;0.50;;
42432;SDS011;28071;48.232;20.668;2023-08-17T14:46:38;0.47;;;0.47;;
42432;SDS011;28071;48.232;20.668;2023-08-17T14:51:40;0.60;;;0.60;;
42432;SDS011;28071;48.232;20.668;2023-08-17T14:56:41;1.55;;;0.73;;
42432;SDS011;28071;48.232;20.668;2023-08-17T15:01:41;1.57;;;0.90;;
42432;SDS011;28071;48.232;20.668;2023-08-17T15:06:41;0.75;;;0.50;;
42432;SDS011;28071;48.232;20.668;2023-08-17T15:11:42;1.33;;;0.70;;
42432;SDS011;28071;48.232;20.668;2023-08-17T15:16:42;0.68;;;0.57;;
42432;SDS011;28071;48.232;20.668;2023-08-17T15:21:42;1.00;;;0.85;;
42432;SDS011;28071;48.232;20.668;2023-08-17T15:26:43;0.77;;;0.73;;
42432;SDS011;28071;48.232;20.668;2023-08-17T15:31:43;0.70;;;0.50;;
42432;SDS011;28071;48.232;20.668;2023-08-17T15:36:44;1.33;;;0.88;;
42432;SDS011;28071;48.232;20.668;2023-08-17T15:41:44;1.13;;;0.80;;
42432;SDS011;28071;48.232;20.668;2023-08-17T15:46:45;0.85;;;0.75;;
42432;SDS011;28071;48.232;20.668;2023-08-17T15:51:45;0.93;;;0.80;;
42432;SDS011;28071;48.232;20.668;2023-08-17T15:56:46;1.05;;;0.70;;
42432;SDS011;28071;48.232;20.668;2023-08-17T16:01:46;1.63;;;0.90;;
42432;SDS011;28071;48.232;20.668;2023-08-17T16:06:47;0.70;;;0.68;;
42432;SDS011;28071;48.232;20.668;2023-08-17T16:11:48;1.45;;;0.93;;
42432;SDS011;28071;48.232;20.668;2023-08-17T16:16:48;1.48;;;1.00;;
42432;SDS011;28071;48.232;20.668;2023-08-17T16:21:48;0.70;;;0.70;;
42432;SDS011;28071;48.232;20.668;2023-08-17T16:26:49;1.05;;;0.82;;
42432;SDS011;28071;48.232;20.668;2023-08-17T16:31:59;1.30;;;0.85;;
42432;SDS011;28071;48.232;20.668;2023-08-17T16:37:01;1.15;;;0.90;;
42432;SDS011;28071;48.232;20.668;2023-08-17T16:42:01;1.10;;;0.90;;
42432;SDS011;28071;48.232;20.668;2023-08-17T16:47:02;3.13;;;1.15;;
42432;SDS011;28071;48.232;20.668;2023-08-17T16:52:02;0.98;;;0.68;;
42432;SDS011;28071;48.232;20.668;2023-08-17T16:57:03;1.65;;;1.00;;
42432;SDS011;28071;48.232;20.668;2023-08-17T17:02:03;1.27;;;1.05;;
42432;SDS011;28071;48.232;20.668;2023-08-17T17:07:04;1.33;;;0.93;;
42432;SDS011;28071;48.232;20.668;2023-08-17T17:12:04;2.08;;;0.90;;
42432;SDS011;28071;48.232;20.668;2023-08-17T17:17:05;0.98;;;0.88;;
42432;SDS011;28071;48.232;20.668;2023-08-17T17:22:06;1.52;;;0.70;;
42432;SDS011;28071;48.232;20.668;2023-08-17T17:27:06;1.25;;;1.05;;
42432;SDS011;28071;48.232;20.668;2023-08-17T17:32:07;1.05;;;0.70;;
42432;SDS011;28071;48.232;20.668;2023-08-17T17:37:07;1.58;;;0.80;;
42432;SDS011;28071;48.232;20.668;2023-08-17T17:42:07;1.38;;;0.80;;
42432;SDS011;28071;48.232;20.668;2023-08-17T17:47:08;2.05;;;1.15;;
42432;SDS011;28071;48.232;20.668;2023-08-17T17:52:08;0.70;;;0.65;;
42432;SDS011;28071;48.232;20.668;2023-08-17T17:57:09;1.67;;;0.90;;
42432;SDS011;28071;48.232;20.668;2023-08-17T18:02:09;0.80;;;0.80;;
42432;SDS011;28071;48.232;20.668;2023-08-17T18:07:09;1.70;;;0.80;;
42432;SDS011;28071;48.232;20.668;2023-08-17T18:12:11;1.65;;;0.88;;
42432;SDS011;28071;48.232;20.668;2023-08-17T18:17:11;1.20;;;0.90;;
42432;SDS011;28071;48.232;20.668;2023-08-17T18:22:12;1.95;;;1.33;;
42432;SDS011;28071;48.232;20.668;2023-08-17T18:27:12;0.85;;;0.75;;
42432;SDS011;28071;48.232;20.668;2023-08-17T18:32:12;2.40;;;1.20;;
42432;SDS011;28071;48.232;20.668;2023-08-17T18:37:13;0.77;;;0.77;;
42432;SDS011;28071;48.232;20.668;2023-08-17T18:42:13;2.53;;;1.13;;
42432;SDS011;28071;48.232;20.668;2023-08-17T18:47:14;1.50;;;0.93;;
42432;SDS011;28071;48.232;20.668;2023-08-17T18:52:15;1.83;;;1.55;;
42432;SDS011;28071;48.232;20.668;2023-08-17T18:57:15;1.80;;;1.10;;
42432;SDS011;28071;48.232;20.668;2023-08-17T19:02:15;1.60;;;1.38;;
42432;SDS011;28071;48.232;20.668;2023-08-17T19:07:16;1.73;;;1.02;;
42432;SDS011;28071;48.232;20.668;2023-08-17T19:12:17;1.85;;;1.17;;
42432;SDS011;28071;48.232;20.668;2023-08-17T19:17:18;1.67;;;1.05;;
42432;SDS011;28071;48.232;20.668;2023-08-17T19:22:18;1.60;;;0.93;;
42432;SDS011;28071;48.232;20.668;2023-08-17T19:27:19;2.38;;;1.90;;
42432;SDS011;28071;48.232;20.668;2023-08-17T19:32:19;0.98;;;0.88;;
42432;SDS011;28071;48.232;20.668;2023-08-17T19:37:20;1.10;;;0.90;;
42432;SDS011;28071;48.232;20.668;2023-08-17T19:42:20;1.92;;;1.20;;
42432;SDS011;28071;48.232;20.668;2023-08-17T19:47:21;3.80;;;1.45;;
42432;SDS011;28071;48.232;20.668;2023-08-17T19:52:21;8.07;;;1.40;;
42432;SDS011;28071;48.232;20.668;2023-08-17T19:57:22;1.13;;;0.93;;
42432;SDS011;28071;48.232;20.668;2023-08-17T20:02:23;2.75;;;1.05;;
42432;SDS011;28071;48.232;20.668;2023-08-17T20:07:24;1.73;;;1.20;;
42432;SDS011;28071;48.232;20.668;2023-08-17T20:12:25;1.65;;;1.42;;
42432;SDS011;28071;48.232;20.668;2023-08-17T20:17:26;1.15;;;0.82;;
42432;SDS011;28071;48.232;20.668;2023-08-17T20:22:26;2.50;;;1.58;;
42432;SDS011;28071;48.232;20.668;2023-08-17T20:27:27;1.13;;;1.02;;
42432;SDS011;28071;48.232;20.668;2023-08-17T20:32:27;1.00;;;0.88;;
42432;SDS011;28071;48.232;20.668;2023-08-17T20:37:28;1.13;;;0.80;;
42432;SDS011;28071;48.232;20.668;2023-08-17T20:42:28;3.38;;;1.63;;
42432;SDS011;28071;48.232;20.668;2023-08-17T20:47:28;1.55;;;1.08;;
42432;SDS011;28071;48.232;20.668;2023-08-17T20:52:29;2.63;;;1.00;;
42432;SDS011;28071;48.232;20.668;2023-08-17T20:57:29;1.45;;;0.98;;
42432;SDS011;28071;48.232;20.668;2023-08-17T21:02:30;1.20;;;0.90;;
42432;SDS011;28071;48.232;20.668;2023-08-17T21:07:32;1.52;;;1.42;;
42432;SDS011;28071;48.232;20.668;2023-08-17T21:12:33;1.63;;;1.20;;
42432;SDS011;28071;48.232;20.668;2023-08-17T21:17:33;2.58;;;1.80;;
42432;SDS011;28071;48.232;20.668;2023-08-17T21:22:36;1.63;;;1.15;;
42432;SDS011;28071;48.232;20.668;2023-08-17T21:27:38;1.27;;;1.15;;
42432;SDS011;28071;48.232;20.668;2023-08-17T21:32:39;1.83;;;1.35;;
42432;SDS011;28071;48.232;20.668;2023-08-17T21:37:39;1.95;;;1.00;;
42432;SDS011;28071;48.232;20.668;2023-08-17T21:42:44;2.47;;;1.23;;
42432;SDS011;28071;48.232;20.668;2023-08-17T21:47:44;3.47;;;1.83;;
42432;SDS011;28071;48.232;20.668;2023-08-17T21:52:44;0.60;;;0.60;;
42432;SDS011;28071;48.232;20.668;2023-08-17T21:57:45;1.73;;;1.10;;
42432;SDS011;28071;48.232;20.668;2023-08-17T23:30:06;2.65;;;1.35;;
42432;SDS011;28071;48.232;20.668;2023-08-17T23:35:07;3.97;;;1.85;;
42432;SDS011;28071;48.232;20.668;2023-08-17T23:40:07;2.15;;;1.30;;
42432;SDS011;28071;48.232;20.668;2023-08-17T23:45:08;2.75;;;1.70;;
42432;SDS011;28071;48.232;20.668;2023-08-17T23:50:09;2.28;;;1.60;;
42432;SDS011;28071;48.232;20.668;2023-08-17T23:55:09;2.47;;;1.60;;
